Terminal Aerodrome Forecast
Issued by NWS Corpus Christi, TX

Home | Current Version | Previous Version | Text Only | Print | Product List | Glossary On
Versions: 1 2 3 4 5 6 7 8 9 10 11 12 13 14 15 16
000
FTUS44 KCRP 280520
TAFCRP
TAF
KCRP 280520Z 2806/2906 12010KT P6SM FEW008 SCT015 BKN250
      TEMPO 2808/2812 BKN015
     FM281400 15015G20KT P6SM SCT025 BKN035
     FM281800 15017G23KT P6SM SCT035
     FM290400 13010KT P6SM SCT012 BKN028=

USA.gov is the U.S. government's official web portal to all federal, state and local government web resources and services.